sensor_id;sensor_type;location;lat;lon;timestamp;pressure;altitude;pressure_sealevel;temperature;humidity
42587;BME280;28216;53.362;-6.288;2023-04-22T00:00:48;100728.41;;;10.60;100.00
42587;BME280;28216;53.362;-6.288;2023-04-22T00:03:13;100718.25;;;10.65;100.00
42587;BME280;28216;53.362;-6.288;2023-04-22T00:05:39;100716.97;;;10.69;100.00
42587;BME280;28216;53.362;-6.288;2023-04-22T00:08:06;100707.63;;;10.66;100.00
42587;BME280;28216;53.362;-6.288;2023-04-22T00:10:32;100710.06;;;10.68;100.00
42587;BME280;28216;53.362;-6.288;2023-04-22T00:12:57;100709.75;;;10.63;100.00
42587;BME280;28216;53.362;-6.288;2023-04-22T00:15:23;100708.25;;;10.60;100.00
42587;BME280;28216;53.362;-6.288;2023-04-22T00:17:49;100704.34;;;10.64;100.00
42587;BME280;28216;53.362;-6.288;2023-04-22T00:20:15;100701.06;;;10.62;100.00
42587;BME280;28216;53.362;-6.288;2023-04-22T00:22:41;100700.06;;;10.63;100.00
42587;BME280;28216;53.362;-6.288;2023-04-22T00:25:07;100694.00;;;10.63;100.00
42587;BME280;28216;53.362;-6.288;2023-04-22T00:27:32;100693.50;;;10.59;100.00
42587;BME280;28216;53.362;-6.288;2023-04-22T00:29:58;100685.97;;;10.56;100.00
42587;BME280;28216;53.362;-6.288;2023-04-22T00:32:23;100681.88;;;10.54;100.00
42587;BME280;28216;53.362;-6.288;2023-04-22T00:34:50;100674.50;;;10.57;100.00
42587;BME280;28216;53.362;-6.288;2023-04-22T00:37:15;100669.91;;;10.59;100.00
42587;BME280;28216;53.362;-6.288;2023-04-22T00:39:41;100663.03;;;10.50;100.00
42587;BME280;28216;53.362;-6.288;2023-04-22T00:42:06;100657.44;;;10.53;100.00
42587;BME280;28216;53.362;-6.288;2023-04-22T00:44:32;100652.03;;;10.55;100.00
42587;BME280;28216;53.362;-6.288;2023-04-22T00:46:58;100654.66;;;10.55;100.00
42587;BME280;28216;53.362;-6.288;2023-04-22T00:49:26;100660.06;;;10.53;100.00
42587;BME280;28216;53.362;-6.288;2023-04-22T00:51:51;100661.88;;;10.53;100.00
42587;BME280;28216;53.362;-6.288;2023-04-22T00:54:18;100655.16;;;10.50;100.00
42587;BME280;28216;53.362;-6.288;2023-04-22T00:56:44;100658.59;;;10.42;100.00
42587;BME280;28216;53.362;-6.288;2023-04-22T00:59:10;100652.69;;;10.48;100.00
42587;BME280;28216;53.362;-6.288;2023-04-22T01:01:36;100649.91;;;10.50;100.00
42587;BME280;28216;53.362;-6.288;2023-04-22T01:04:02;100648.44;;;10.47;100.00
42587;BME280;28216;53.362;-6.288;2023-04-22T01:06:29;100643.19;;;10.47;100.00
42587;BME280;28216;53.362;-6.288;2023-04-22T01:08:57;100647.59;;;10.47;100.00
42587;BME280;28216;53.362;-6.288;2023-04-22T01:11:23;100638.09;;;10.46;100.00
42587;BME280;28216;53.362;-6.288;2023-04-22T01:13:49;100638.44;;;10.43;100.00
42587;BME280;28216;53.362;-6.288;2023-04-22T01:16:16;100629.44;;;10.45;100.00
42587;BME280;28216;53.362;-6.288;2023-04-22T01:18:41;100628.28;;;10.48;100.00
42587;BME280;28216;53.362;-6.288;2023-04-22T01:21:07;100620.09;;;10.51;100.00
42587;BME280;28216;53.362;-6.288;2023-04-22T01:23:32;100616.00;;;10.48;100.00
42587;BME280;28216;53.362;-6.288;2023-04-22T01:25:58;100619.75;;;10.46;100.00
42587;BME280;28216;53.362;-6.288;2023-04-22T01:28:24;100609.06;;;10.39;100.00
42587;BME280;28216;53.362;-6.288;2023-04-22T01:30:50;100599.56;;;10.38;100.00
42587;BME280;28216;53.362;-6.288;2023-04-22T01:33:17;100597.13;;;10.37;100.00
42587;BME280;28216;53.362;-6.288;2023-04-22T01:35:42;100589.41;;;10.35;100.00
42587;BME280;28216;53.362;-6.288;2023-04-22T01:38:10;100590.22;;;10.36;100.00
42587;BME280;28216;53.362;-6.288;2023-04-22T01:40:36;100576.63;;;10.32;100.00
42587;BME280;28216;53.362;-6.288;2023-04-22T01:43:02;100591.03;;;10.36;100.00
42587;BME280;28216;53.362;-6.288;2023-04-22T01:45:28;100590.72;;;10.39;100.00
42587;BME280;28216;53.362;-6.288;2023-04-22T01:47:54;100594.50;;;10.37;100.00
42587;BME280;28216;53.362;-6.288;2023-04-22T01:50:21;100590.88;;;10.38;100.00
42587;BME280;28216;53.362;-6.288;2023-04-22T01:52:46;100596.13;;;10.38;100.00
42587;BME280;28216;53.362;-6.288;2023-04-22T01:55:12;100596.78;;;10.32;100.00
42587;BME280;28216;53.362;-6.288;2023-04-22T01:57:38;100594.16;;;10.32;100.00
42587;BME280;28216;53.362;-6.288;2023-04-22T02:00:04;100587.75;;;10.26;100.00
42587;BME280;28216;53.362;-6.288;2023-04-22T02:02:30;100582.69;;;10.25;100.00
42587;BME280;28216;53.362;-6.288;2023-04-22T02:04:56;100585.63;;;10.22;100.00
42587;BME280;28216;53.362;-6.288;2023-04-22T02:07:21;100590.72;;;10.31;100.00
42587;BME280;28216;53.362;-6.288;2023-04-22T02:09:48;100580.56;;;10.28;100.00
42587;BME280;28216;53.362;-6.288;2023-04-22T02:12:14;100578.91;;;10.27;100.00
42587;BME280;28216;53.362;-6.288;2023-04-22T02:14:39;100581.22;;;10.30;100.00
42587;BME280;28216;53.362;-6.288;2023-04-22T02:17:05;100575.16;;;10.30;100.00
42587;BME280;28216;53.362;-6.288;2023-04-22T02:19:30;100577.94;;;10.28;100.00
42587;BME280;28216;53.362;-6.288;2023-04-22T02:21:56;100581.88;;;10.32;100.00
42587;BME280;28216;53.362;-6.288;2023-04-22T02:24:22;100573.84;;;10.26;100.00
42587;BME280;28216;53.362;-6.288;2023-04-22T02:26:47;100567.28;;;10.30;100.00
42587;BME280;28216;53.362;-6.288;2023-04-22T02:29:13;100568.13;;;10.30;100.00
42587;BME280;28216;53.362;-6.288;2023-04-22T02:31:39;100564.34;;;10.33;100.00
42587;BME280;28216;53.362;-6.288;2023-04-22T02:34:04;100558.28;;;10.32;100.00
42587;BME280;28216;53.362;-6.288;2023-04-22T02:36:30;100550.91;;;10.36;100.00
42587;BME280;28216;53.362;-6.288;2023-04-22T02:38:56;100555.50;;;10.34;100.00
42587;BME280;28216;53.362;-6.288;2023-04-22T02:41:22;100549.94;;;10.29;100.00
42587;BME280;28216;53.362;-6.288;2023-04-22T02:43:48;100544.84;;;10.27;100.00
42587;BME280;28216;53.362;-6.288;2023-04-22T02:46:14;100547.16;;;10.30;100.00
42587;BME280;28216;53.362;-6.288;2023-04-22T02:48:41;100544.84;;;10.27;100.00
42587;BME280;28216;53.362;-6.288;2023-04-22T02:51:07;100537.66;;;10.29;100.00
42587;BME280;28216;53.362;-6.288;2023-04-22T02:53:32;100538.31;;;10.31;100.00
42587;BME280;28216;53.362;-6.288;2023-04-22T02:55:58;100540.94;;;10.31;100.00
42587;BME280;28216;53.362;-6.288;2023-04-22T02:58:23;100540.59;;;10.34;100.00
42587;BME280;28216;53.362;-6.288;2023-04-22T03:00:50;100531.91;;;10.34;100.00
42587;BME280;28216;53.362;-6.288;2023-04-22T03:03:16;100526.84;;;10.32;100.00
42587;BME280;28216;53.362;-6.288;2023-04-22T03:05:41;100534.69;;;10.32;100.00
42587;BME280;28216;53.362;-6.288;2023-04-22T03:08:07;100519.63;;;10.34;100.00
42587;BME280;28216;53.362;-6.288;2023-04-22T03:10:32;100521.59;;;10.32;100.00
42587;BME280;28216;53.362;-6.288;2023-04-22T03:12:58;100521.28;;;10.35;100.00
42587;BME280;28216;53.362;-6.288;2023-04-22T03:15:23;100508.16;;;10.35;100.00
42587;BME280;28216;53.362;-6.288;2023-04-22T03:17:49;100509.81;;;10.36;100.00
42587;BME280;28216;53.362;-6.288;2023-04-22T03:20:15;100501.63;;;10.39;100.00
42587;BME280;28216;53.362;-6.288;2023-04-22T03:22:40;100500.78;;;10.39;100.00
42587;BME280;28216;53.362;-6.288;2023-04-22T03:25:06;100491.31;;;10.38;100.00
42587;BME280;28216;53.362;-6.288;2023-04-22T03:27:32;100488.19;;;10.34;100.00
42587;BME280;28216;53.362;-6.288;2023-04-22T03:29:57;100483.44;;;10.30;100.00
42587;BME280;28216;53.362;-6.288;2023-04-22T03:32:23;100484.91;;;10.32;100.00
42587;BME280;28216;53.362;-6.288;2023-04-22T03:34:48;100475.75;;;10.28;100.00
42587;BME280;28216;53.362;-6.288;2023-04-22T03:37:14;100473.13;;;10.28;100.00
42587;BME280;28216;53.362;-6.288;2023-04-22T03:39:39;100478.19;;;10.30;100.00
42587;BME280;28216;53.362;-6.288;2023-04-22T03:42:05;100470.00;;;10.25;100.00
42587;BME280;28216;53.362;-6.288;2023-04-22T03:44:30;100461.81;;;10.28;100.00
42587;BME280;28216;53.362;-6.288;2023-04-22T03:46:56;100461.81;;;10.28;100.00
42587;BME280;28216;53.362;-6.288;2023-04-22T03:49:21;100453.13;;;10.27;100.00
42587;BME280;28216;53.362;-6.288;2023-04-22T03:51:46;100446.44;;;10.25;100.00
42587;BME280;28216;53.362;-6.288;2023-04-22T03:54:12;100443.31;;;10.21;100.00
42587;BME280;28216;53.362;-6.288;2023-04-22T03:56:37;100446.56;;;10.15;100.00
42587;BME280;28216;53.362;-6.288;2023-04-22T03:59:03;100433.78;;;10.12;100.00
42587;BME280;28216;53.362;-6.288;2023-04-22T04:01:28;100436.25;;;10.13;100.00
42587;BME280;28216;53.362;-6.288;2023-04-22T04:03:54;100419.88;;;10.11;100.00
42587;BME280;28216;53.362;-6.288;2023-04-22T04:06:19;100423.97;;;10.14;100.00
42587;BME280;28216;53.362;-6.288;2023-04-22T04:08:45;100423.00;;;10.15;100.00
42587;BME280;28216;53.362;-6.288;2023-04-22T04:11:11;100421.03;;;10.17;100.00
42587;BME280;28216;53.362;-6.288;2023-04-22T04:13:36;100421.84;;;10.17;100.00
42587;BME280;28216;53.362;-6.288;2023-04-22T04:16:02;100429.22;;;10.14;100.00
42587;BME280;28216;53.362;-6.288;2023-04-22T04:18:28;100416.28;;;10.12;100.00
42587;BME280;28216;53.362;-6.288;2023-04-22T04:20:54;100420.22;;;10.08;100.00
42587;BME280;28216;53.362;-6.288;2023-04-22T04:23:20;100411.88;;;10.05;100.00
42587;BME280;28216;53.362;-6.288;2023-04-22T04:25:46;100398.44;;;10.08;100.00
42587;BME280;28216;53.362;-6.288;2023-04-22T04:28:12;100408.59;;;10.11;100.00
42587;BME280;28216;53.362;-6.288;2023-04-22T04:30:38;100403.19;;;10.12;100.00
42587;BME280;28216;53.362;-6.288;2023-04-22T04:33:05;100395.47;;;10.11;100.00
42587;BME280;28216;53.362;-6.288;2023-04-22T04:35:32;100396.13;;;10.13;100.00
42587;BME280;28216;53.362;-6.288;2023-04-22T04:37:59;100388.28;;;10.05;100.00
42587;BME280;28216;53.362;-6.288;2023-04-22T04:40:24;100381.91;;;10.07;100.00
42587;BME280;28216;53.362;-6.288;2023-04-22T04:42:50;100378.13;;;10.10;100.00
42587;BME280;28216;53.362;-6.288;2023-04-22T04:45:17;100376.34;;;10.10;100.00
42587;BME280;28216;53.362;-6.288;2023-04-22T04:47:44;100359.47;;;10.05;100.00
42587;BME280;28216;53.362;-6.288;2023-04-22T04:50:10;100358.66;;;10.04;100.00
42587;BME280;28216;53.362;-6.288;2023-04-22T04:52:36;100353.59;;;10.03;100.00
42587;BME280;28216;53.362;-6.288;2023-04-22T04:55:02;100349.66;;;9.99;100.00
42587;BME280;28216;53.362;-6.288;2023-04-22T04:57:27;100345.25;;;9.99;100.00
42587;BME280;28216;53.362;-6.288;2023-04-22T04:59:53;100355.88;;;9.98;100.00
42587;BME280;28216;53.362;-6.288;2023-04-22T05:02:18;100349.34;;;9.94;100.00
42587;BME280;28216;53.362;-6.288;2023-04-22T05:04:44;100347.38;;;9.96;100.00
42587;BME280;28216;53.362;-6.288;2023-04-22T05:07:09;100344.09;;;9.94;100.00
42587;BME280;28216;53.362;-6.288;2023-04-22T05:09:34;100342.63;;;9.91;100.00
42587;BME280;28216;53.362;-6.288;2023-04-22T05:12:02;100338.38;;;9.90;100.00
42587;BME280;28216;53.362;-6.288;2023-04-22T05:14:29;100346.06;;;9.92;100.00
42587;BME280;28216;53.362;-6.288;2023-04-22T05:16:54;100351.63;;;9.88;100.00
42587;BME280;28216;53.362;-6.288;2023-04-22T05:19:20;100347.88;;;9.91;100.00
42587;BME280;28216;53.362;-6.288;2023-04-22T05:21:45;100347.06;;;9.91;100.00
42587;BME280;28216;53.362;-6.288;2023-04-22T05:24:11;100348.84;;;9.90;100.00
42587;BME280;28216;53.362;-6.288;2023-04-22T05:26:36;100333.97;;;9.91;100.00
42587;BME280;28216;53.362;-6.288;2023-04-22T05:29:02;100328.72;;;9.91;100.00
42587;BME280;28216;53.362;-6.288;2023-04-22T05:31:27;100333.31;;;9.88;100.00
42587;BME280;28216;53.362;-6.288;2023-04-22T05:33:53;100332.66;;;9.86;100.00
42587;BME280;28216;53.362;-6.288;2023-04-22T05:36:19;100331.50;;;9.89;100.00
42587;BME280;28216;53.362;-6.288;2023-04-22T05:38:44;100336.75;;;9.89;100.00
42587;BME280;28216;53.362;-6.288;2023-04-22T05:41:10;100332.16;;;9.91;100.00
42587;BME280;28216;53.362;-6.288;2023-04-22T05:43:35;100327.41;;;9.95;100.00
42587;BME280;28216;53.362;-6.288;2023-04-22T05:46:00;100320.84;;;9.99;100.00
42587;BME280;28216;53.362;-6.288;2023-04-22T05:48:26;100324.28;;;9.99;100.00
42587;BME280;28216;53.362;-6.288;2023-04-22T05:50:51;100331.97;;;10.01;100.00
42587;BME280;28216;53.362;-6.288;2023-04-22T05:53:18;100331.00;;;10.02;100.00
42587;BME280;28216;53.362;-6.288;2023-04-22T05:55:44;100329.03;;;10.04;100.00
42587;BME280;28216;53.362;-6.288;2023-04-22T05:58:09;100321.34;;;10.02;100.00
42587;BME280;28216;53.362;-6.288;2023-04-22T06:00:35;100327.88;;;10.06;100.00
42587;BME280;28216;53.362;-6.288;2023-04-22T06:03:00;100325.59;;;9.95;100.00
42587;BME280;28216;53.362;-6.288;2023-04-22T06:05:25;100325.25;;;10.06;100.00
42587;BME280;28216;53.362;-6.288;2023-04-22T06:07:51;100321.81;;;10.06;100.00
42587;BME280;28216;53.362;-6.288;2023-04-22T06:10:17;100322.00;;;10.04;100.00
42587;BME280;28216;53.362;-6.288;2023-04-22T06:12:42;100322.81;;;10.05;100.00
42587;BME280;28216;53.362;-6.288;2023-04-22T06:15:08;100314.94;;;10.05;100.00
42587;BME280;28216;53.362;-6.288;2023-04-22T06:17:34;100320.66;;;10.08;100.00
42587;BME280;28216;53.362;-6.288;2023-04-22T06:20:00;100323.47;;;10.07;100.00
42587;BME280;28216;53.362;-6.288;2023-04-22T06:22:25;100311.00;;;10.09;100.00
42587;BME280;28216;53.362;-6.288;2023-04-22T06:24:51;100312.66;;;10.10;100.00
42587;BME280;28216;53.362;-6.288;2023-04-22T06:27:16;100306.59;;;10.09;100.00
42587;BME280;28216;53.362;-6.288;2023-04-22T06:29:42;100311.81;;;10.09;100.00
42587;BME280;28216;53.362;-6.288;2023-04-22T06:32:07;100310.19;;;10.08;100.00
42587;BME280;28216;53.362;-6.288;2023-04-22T06:34:32;100308.41;;;10.09;100.00
42587;BME280;28216;53.362;-6.288;2023-04-22T06:36:58;100298.56;;;10.11;100.00
42587;BME280;28216;53.362;-6.288;2023-04-22T06:39:23;100303.16;;;10.09;100.00
42587;BME280;28216;53.362;-6.288;2023-04-22T06:41:49;100289.06;;;10.10;100.00
42587;BME280;28216;53.362;-6.288;2023-04-22T06:44:14;100283.84;;;10.10;100.00
42587;BME280;28216;53.362;-6.288;2023-04-22T06:46:40;100284.78;;;10.17;100.00
42587;BME280;28216;53.362;-6.288;2023-04-22T06:49:05;100286.78;;;10.23;100.00
42587;BME280;28216;53.362;-6.288;2023-04-22T06:51:31;100275.28;;;10.32;100.00
42587;BME280;28216;53.362;-6.288;2023-04-22T06:53:56;100289.03;;;10.42;100.00
42587;BME280;28216;53.362;-6.288;2023-04-22T06:56:23;100284.06;;;10.56;100.00
42587;BME280;28216;53.362;-6.288;2023-04-22T06:58:48;100272.53;;;10.65;100.00
42587;BME280;28216;53.362;-6.288;2023-04-22T07:01:14;100267.09;;;10.74;100.00
42587;BME280;28216;53.362;-6.288;2023-04-22T07:03:39;100275.94;;;10.73;100.00
42587;BME280;28216;53.362;-6.288;2023-04-22T07:06:06;100274.31;;;10.72;100.00
42587;BME280;28216;53.362;-6.288;2023-04-22T07:08:32;100278.25;;;10.68;100.00
42587;BME280;28216;53.362;-6.288;2023-04-22T07:10:57;100269.06;;;10.72;100.00
42587;BME280;28216;53.362;-6.288;2023-04-22T07:13:23;100263.25;;;10.85;100.00
42587;BME280;28216;53.362;-6.288;2023-04-22T07:15:48;100267.69;;;11.07;100.00
42587;BME280;28216;53.362;-6.288;2023-04-22T07:18:14;100273.44;;;11.34;100.00
42587;BME280;28216;53.362;-6.288;2023-04-22T07:20:39;100268.31;;;11.40;100.00
42587;BME280;28216;53.362;-6.288;2023-04-22T07:23:05;100259.78;;;11.38;100.00
42587;BME280;28216;53.362;-6.288;2023-04-22T07:25:30;100263.97;;;11.48;100.00
42587;BME280;28216;53.362;-6.288;2023-04-22T07:27:56;100261.19;;;11.49;100.00
42587;BME280;28216;53.362;-6.288;2023-04-22T07:30:22;100256.63;;;11.43;100.00
42587;BME280;28216;53.362;-6.288;2023-04-22T07:32:47;100258.63;;;11.41;100.00
42587;BME280;28216;53.362;-6.288;2023-04-22T07:35:13;100257.13;;;11.24;100.00
42587;BME280;28216;53.362;-6.288;2023-04-22T07:37:38;100248.31;;;11.17;100.00
42587;BME280;28216;53.362;-6.288;2023-04-22T07:40:04;100247.06;;;11.04;100.00
42587;BME280;28216;53.362;-6.288;2023-04-22T07:42:30;100248.16;;;10.87;100.00
42587;BME280;28216;53.362;-6.288;2023-04-22T07:44:55;100253.63;;;10.77;100.00
42587;BME280;28216;53.362;-6.288;2023-04-22T07:47:21;100248.44;;;10.69;100.00
42587;BME280;28216;53.362;-6.288;2023-04-22T07:49:46;100240.91;;;10.66;100.00
42587;BME280;28216;53.362;-6.288;2023-04-22T07:52:12;100248.31;;;10.63;100.00
42587;BME280;28216;53.362;-6.288;2023-04-22T07:54:40;100241.47;;;10.54;100.00
42587;BME280;28216;53.362;-6.288;2023-04-22T07:57:06;100237.56;;;10.49;100.00
42587;BME280;28216;53.362;-6.288;2023-04-22T07:59:31;100234.00;;;10.42;100.00
42587;BME280;28216;53.362;-6.288;2023-04-22T08:01:56;100234.81;;;10.35;100.00
42587;BME280;28216;53.362;-6.288;2023-04-22T08:04:22;100236.44;;;10.36;100.00
42587;BME280;28216;53.362;-6.288;2023-04-22T08:06:48;100237.31;;;10.28;100.00
42587;BME280;28216;53.362;-6.288;2023-04-22T08:09:13;100235.84;;;10.26;100.00
42587;BME280;28216;53.362;-6.288;2023-04-22T08:11:39;100232.06;;;10.28;100.00
42587;BME280;28216;53.362;-6.288;2023-04-22T08:14:04;100235.34;;;10.22;100.00
42587;BME280;28216;53.362;-6.288;2023-04-22T08:16:30;100234.19;;;10.25;100.00
42587;BME280;28216;53.362;-6.288;2023-04-22T08:18:55;100239.28;;;10.26;100.00
42587;BME280;28216;53.362;-6.288;2023-04-22T08:21:22;100231.41;;;10.26;100.00
42587;BME280;28216;53.362;-6.288;2023-04-22T08:23:47;100232.88;;;10.29;100.00
42587;BME280;28216;53.362;-6.288;2023-04-22T08:26:12;100231.88;;;10.30;100.00
42587;BME280;28216;53.362;-6.288;2023-04-22T08:28:40;100223.03;;;10.31;100.00
42587;BME280;28216;53.362;-6.288;2023-04-22T08:31:06;100228.63;;;10.28;100.00
42587;BME280;28216;53.362;-6.288;2023-04-22T08:33:34;100224.66;;;10.32;100.00
42587;BME280;28216;53.362;-6.288;2023-04-22T08:35:59;100218.97;;;10.28;100.00
42587;BME280;28216;53.362;-6.288;2023-04-22T08:38:27;100215.22;;;10.23;100.00
42587;BME280;28216;53.362;-6.288;2023-04-22T08:40:55;100204.56;;;10.16;100.00
42587;BME280;28216;53.362;-6.288;2023-04-22T08:43:21;100206.84;;;10.19;100.00
42587;BME280;28216;53.362;-6.288;2023-04-22T08:45:47;100200.78;;;10.18;100.00
42587;BME280;28216;53.362;-6.288;2023-04-22T08:48:14;100198.50;;;10.15;100.00
42587;BME280;28216;53.362;-6.288;2023-04-22T08:50:40;100210.19;;;10.05;100.00
42587;BME280;28216;53.362;-6.288;2023-04-22T08:53:05;100205.66;;;9.91;100.00
42587;BME280;28216;53.362;-6.288;2023-04-22T08:55:31;100203.38;;;9.79;100.00
42587;BME280;28216;53.362;-6.288;2023-04-22T08:57:59;100202.09;;;9.59;100.00
42587;BME280;28216;53.362;-6.288;2023-04-22T09:00:26;100198.50;;;9.52;100.00
42587;BME280;28216;53.362;-6.288;2023-04-22T09:02:52;100201.78;;;9.54;100.00
42587;BME280;28216;53.362;-6.288;2023-04-22T09:05:19;100200.16;;;9.45;100.00
42587;BME280;28216;53.362;-6.288;2023-04-22T09:07:47;100195.75;;;9.37;100.00
42587;BME280;28216;53.362;-6.288;2023-04-22T09:10:13;100199.03;;;9.31;100.00
42587;BME280;28216;53.362;-6.288;2023-04-22T09:12:40;100199.19;;;9.38;100.00
42587;BME280;28216;53.362;-6.288;2023-04-22T09:15:06;100197.72;;;9.35;100.00
42587;BME280;28216;53.362;-6.288;2023-04-22T09:17:35;100196.41;;;9.39;100.00
42587;BME280;28216;53.362;-6.288;2023-04-22T09:20:04;100193.28;;;9.36;100.00
42587;BME280;28216;53.362;-6.288;2023-04-22T09:22:39;100190.84;;;9.26;100.00
42587;BME280;28216;53.362;-6.288;2023-04-22T09:25:13;100183.81;;;9.27;100.00
42587;BME280;28216;53.362;-6.288;2023-04-22T09:27:39;100182.03;;;9.27;100.00
42587;BME280;28216;53.362;-6.288;2023-04-22T09:30:07;100184.13;;;9.32;100.00
42587;BME280;28216;53.362;-6.288;2023-04-22T09:32:33;100181.69;;;9.30;100.00
42587;BME280;28216;53.362;-6.288;2023-04-22T09:35:00;100177.28;;;9.31;100.00
42587;BME280;28216;53.362;-6.288;2023-04-22T09:37:26;100179.72;;;9.32;100.00
42587;BME280;28216;53.362;-6.288;2023-04-22T09:39:52;100177.28;;;9.31;100.00
42587;BME280;28216;53.362;-6.288;2023-04-22T09:42:18;100174.50;;;9.32;100.00
42587;BME280;28216;53.362;-6.288;2023-04-22T09:44:48;100177.91;;;9.41;100.00
42587;BME280;28216;53.362;-6.288;2023-04-22T09:47:18;100171.69;;;9.42;100.00
42587;BME280;28216;53.362;-6.288;2023-04-22T09:49:48;100174.31;;;9.42;100.00
42587;BME280;28216;53.362;-6.288;2023-04-22T09:52:24;100167.63;;;9.39;100.00
42587;BME280;28216;53.362;-6.288;2023-04-22T09:54:52;100173.84;;;9.38;100.00
42587;BME280;28216;53.362;-6.288;2023-04-22T09:57:18;100182.34;;;9.32;100.00
42587;BME280;28216;53.362;-6.288;2023-04-22T09:59:43;100173.69;;;9.32;100.00
42587;BME280;28216;53.362;-6.288;2023-04-22T10:02:09;100172.38;;;9.36;100.00
42587;BME280;28216;53.362;-6.288;2023-04-22T10:04:35;100173.34;;;9.35;100.00
42587;BME280;28216;53.362;-6.288;2023-04-22T10:07:00;100173.34;;;9.35;100.00
42587;BME280;28216;53.362;-6.288;2023-04-22T10:09:29;100167.44;;;9.41;100.00
42587;BME280;28216;53.362;-6.288;2023-04-22T10:11:56;100167.59;;;9.47;100.00
42587;BME280;28216;53.362;-6.288;2023-04-22T10:14:25;100167.59;;;9.47;100.00
42587;BME280;28216;53.362;-6.288;2023-04-22T10:16:57;100165.81;;;9.48;100.00
42587;BME280;28216;53.362;-6.288;2023-04-22T10:19:24;100159.25;;;9.52;100.00
42587;BME280;28216;53.362;-6.288;2023-04-22T10:21:54;100162.19;;;9.57;100.00
42587;BME280;28216;53.362;-6.288;2023-04-22T10:24:20;100156.28;;;9.63;100.00
42587;BME280;28216;53.362;-6.288;2023-04-22T10:26:52;100164.47;;;9.68;100.00
42587;BME280;28216;53.362;-6.288;2023-04-22T10:29:19;100157.28;;;9.70;100.00
42587;BME280;28216;53.362;-6.288;2023-04-22T10:32:05;100160.69;;;9.79;100.00
42587;BME280;28216;53.362;-6.288;2023-04-22T10:34:48;100164.41;;;9.84;100.00
42587;BME280;28216;53.362;-6.288;2023-04-22T10:37:19;100155.59;;;9.85;100.00
42587;BME280;28216;53.362;-6.288;2023-04-22T10:40:14;100151.13;;;9.94;100.00
42587;BME280;28216;53.362;-6.288;2023-04-22T10:42:42;100157.63;;;10.06;100.00
42587;BME280;28216;53.362;-6.288;2023-04-22T10:45:14;100157.28;;;10.09;100.00
42587;BME280;28216;53.362;-6.288;2023-04-22T10:47:40;100162.19;;;10.12;100.00
42587;BME280;28216;53.362;-6.288;2023-04-22T10:52:49;100157.94;;;10.11;100.00
42587;BME280;28216;53.362;-6.288;2023-04-22T10:55:15;100161.53;;;10.10;100.00
42587;BME280;28216;53.362;-6.288;2023-04-22T10:57:43;100168.09;;;10.06;100.00
42587;BME280;28216;53.362;-6.288;2023-04-22T11:00:27;100160.97;;;9.92;100.00
42587;BME280;28216;53.362;-6.288;2023-04-22T11:05:25;100161.50;;;9.79;100.00
42587;BME280;28216;53.362;-6.288;2023-04-22T11:08:00;100159.53;;;9.65;100.00
42587;BME280;28216;53.362;-6.288;2023-04-22T11:10:34;100159.25;;;9.52;100.00
42587;BME280;28216;53.362;-6.288;2023-04-22T11:13:01;100159.44;;;9.42;100.00
42587;BME280;28216;53.362;-6.288;2023-04-22T11:15:29;100161.72;;;9.37;100.00
42587;BME280;28216;53.362;-6.288;2023-04-22T11:17:55;100162.06;;;9.34;100.00
42587;BME280;28216;53.362;-6.288;2023-04-22T11:20:21;100161.75;;;9.21;100.00
42587;BME280;28216;53.362;-6.288;2023-04-22T11:22:51;100157.50;;;9.20;100.00
42587;BME280;28216;53.362;-6.288;2023-04-22T11:25:17;100159.97;;;9.13;100.00
42587;BME280;28216;53.362;-6.288;2023-04-22T11:27:45;100158.31;;;9.12;100.00
42587;BME280;28216;53.362;-6.288;2023-04-22T11:30:18;100158.00;;;9.15;100.00
42587;BME280;28216;53.362;-6.288;2023-04-22T11:32:46;100160.28;;;9.18;100.00
42587;BME280;28216;53.362;-6.288;2023-04-22T11:35:14;100160.78;;;9.14;100.00
42587;BME280;28216;53.362;-6.288;2023-04-22T11:37:44;100156.38;;;9.14;100.00
42587;BME280;28216;53.362;-6.288;2023-04-22T11:40:21;100166.50;;;9.17;100.00
42587;BME280;28216;53.362;-6.288;2023-04-22T11:42:47;100159.16;;;9.13;100.00
42587;BME280;28216;53.362;-6.288;2023-04-22T11:45:13;100158.16;;;9.14;100.00
42587;BME280;28216;53.362;-6.288;2023-04-22T11:47:39;100156.38;;;9.14;100.00
42587;BME280;28216;53.362;-6.288;2023-04-22T11:50:07;100170.41;;;9.21;100.00
42587;BME280;28216;53.362;-6.288;2023-04-22T11:53:00;100160.13;;;9.20;100.00
42587;BME280;28216;53.362;-6.288;2023-04-22T11:55:34;100167.31;;;9.18;100.00
42587;BME280;28216;53.362;-6.288;2023-04-22T11:58:11;100156.84;;;9.18;100.00
42587;BME280;28216;53.362;-6.288;2023-04-22T12:00:42;100156.34;;;9.22;100.00
42587;BME280;28216;53.362;-6.288;2023-04-22T12:05:42;100161.25;;;9.17;100.00
42587;BME280;28216;53.362;-6.288;2023-04-22T12:08:12;100160.94;;;9.20;100.00
42587;BME280;28216;53.362;-6.288;2023-04-22T12:10:43;100164.19;;;9.22;100.00
42587;BME280;28216;53.362;-6.288;2023-04-22T12:13:16;100167.47;;;9.24;100.00
42587;BME280;28216;53.362;-6.288;2023-04-22T12:15:42;100158.81;;;9.24;100.00
42587;BME280;28216;53.362;-6.288;2023-04-22T12:18:09;100151.13;;;9.31;100.00
42587;BME280;28216;53.362;-6.288;2023-04-22T12:20:38;100158.78;;;9.32;100.00
42587;BME280;28216;53.362;-6.288;2023-04-22T12:23:04;100150.47;;;9.29;100.00
42587;BME280;28216;53.362;-6.288;2023-04-22T12:25:30;100153.41;;;9.34;100.00
42587;BME280;28216;53.362;-6.288;2023-04-22T12:27:58;100148.97;;;9.34;100.00
42587;BME280;28216;53.362;-6.288;2023-04-22T12:30:29;100148.00;;;9.35;100.00
42587;BME280;28216;53.362;-6.288;2023-04-22T12:32:55;100148.31;;;9.40;100.00
42587;BME280;28216;53.362;-6.288;2023-04-22T12:35:21;100141.44;;;9.39;100.00
42587;BME280;28216;53.362;-6.288;2023-04-22T12:37:46;100148.97;;;9.42;100.00